createdAt,value
2022-11-16T00:01:13.263Z,100.00
2022-11-16T00:03:40.807Z,100.00
2022-11-16T00:06:08.604Z,100.00
2022-11-16T00:08:47.276Z,100.00
2022-11-16T00:11:17.050Z,100.00
2022-11-16T00:13:44.405Z,100.00
2022-11-16T00:16:18.192Z,100.00
2022-11-16T00:18:45.187Z,100.00
2022-11-16T00:21:12.183Z,100.00
2022-11-16T00:23:39.426Z,100.00
2022-11-16T00:26:07.876Z,100.00
2022-11-16T00:28:35.684Z,100.00
2022-11-16T00:31:05.046Z,100.00
2022-11-16T00:33:32.566Z,99.87
2022-11-16T00:36:07.821Z,97.73
2022-11-16T00:38:35.172Z,97.55
2022-11-16T00:41:02.443Z,97.85
2022-11-16T00:43:30.124Z,97.26
2022-11-16T00:45:57.241Z,96.90
2022-11-16T00:48:24.325Z,98.81
2022-11-16T00:50:51.518Z,98.90
2022-11-16T00:53:20.409Z,98.28
2022-11-16T00:55:48.304Z,98.77
2022-11-16T00:58:17.443Z,100.00
2022-11-16T01:00:48.672Z,100.00
2022-11-16T01:03:15.996Z,100.00
2022-11-16T01:05:43.001Z,100.00
2022-11-16T01:08:10.331Z,100.00
2022-11-16T01:10:39.730Z,100.00
2022-11-16T01:13:07.128Z,100.00
2022-11-16T01:15:34.182Z,100.00
2022-11-16T01:18:01.172Z,100.00
2022-11-16T01:20:29.451Z,100.00
2022-11-16T01:22:57.000Z,100.00
2022-11-16T01:25:24.185Z,100.00
2022-11-16T01:27:51.221Z,100.00
2022-11-16T01:30:25.306Z,100.00
2022-11-16T01:33:02.611Z,100.00
2022-11-16T01:35:29.606Z,100.00
2022-11-16T01:37:57.008Z,100.00
2022-11-16T01:40:27.060Z,100.00
2022-11-16T01:42:54.112Z,100.00
2022-11-16T01:45:39.868Z,100.00
2022-11-16T01:48:11.314Z,100.00
2022-11-16T01:50:39.329Z,100.00
2022-11-16T01:53:08.839Z,100.00
2022-11-16T01:55:46.641Z,100.00
2022-11-16T01:58:26.138Z,100.00
2022-11-16T02:00:58.954Z,100.00
2022-11-16T02:03:37.659Z,100.00
2022-11-16T02:06:23.350Z,100.00
2022-11-16T02:09:13.710Z,100.00
2022-11-16T02:12:01.079Z,100.00
2022-11-16T02:14:55.177Z,100.00
2022-11-16T02:17:47.174Z,100.00
2022-11-16T02:20:27.117Z,100.00
2022-11-16T02:22:57.320Z,100.00
2022-11-16T02:25:45.131Z,100.00
2022-11-16T02:28:52.252Z,100.00
2022-11-16T02:31:37.045Z,100.00
2022-11-16T02:34:07.756Z,100.00
2022-11-16T02:36:38.773Z,100.00
2022-11-16T02:39:14.636Z,100.00
2022-11-16T02:41:44.028Z,100.00
2022-11-16T02:44:17.346Z,100.00
2022-11-16T02:46:46.262Z,100.00
2022-11-16T02:49:19.129Z,100.00
2022-11-16T02:51:47.525Z,100.00
2022-11-16T02:54:17.612Z,100.00
2022-11-16T02:57:15.530Z,100.00
2022-11-16T02:59:46.601Z,100.00
2022-11-16T03:02:13.773Z,100.00
2022-11-16T03:04:45.871Z,100.00
2022-11-16T03:07:16.162Z,100.00
2022-11-16T03:09:46.748Z,100.00
2022-11-16T03:12:16.573Z,100.00
2022-11-16T03:14:46.853Z,100.00
2022-11-16T03:17:20.131Z,100.00
2022-11-16T03:20:09.433Z,100.00
2022-11-16T03:22:42.006Z,100.00
2022-11-16T03:25:15.763Z,100.00
2022-11-16T03:27:52.469Z,100.00
2022-11-16T03:30:23.997Z,100.00
2022-11-16T03:33:05.764Z,100.00
2022-11-16T03:35:36.366Z,100.00
2022-11-16T03:38:06.383Z,100.00
2022-11-16T03:40:36.021Z,100.00
2022-11-16T03:43:06.432Z,100.00
2022-11-16T03:45:34.014Z,100.00
2022-11-16T03:48:01.055Z,100.00
2022-11-16T03:50:28.170Z,100.00
2022-11-16T03:52:55.307Z,100.00
2022-11-16T03:55:22.567Z,100.00
2022-11-16T03:57:49.635Z,100.00
2022-11-16T04:00:16.848Z,100.00
2022-11-16T04:02:44.517Z,100.00
2022-11-16T04:05:18.108Z,100.00
2022-11-16T04:07:45.111Z,100.00
2022-11-16T04:10:12.953Z,100.00
2022-11-16T04:12:43.768Z,100.00
2022-11-16T04:15:10.836Z,100.00
2022-11-16T04:17:37.803Z,100.00
2022-11-16T04:20:05.704Z,100.00
2022-11-16T04:22:39.780Z,100.00
2022-11-16T04:25:27.074Z,100.00
2022-11-16T04:27:54.861Z,100.00
2022-11-16T04:30:22.206Z,100.00
2022-11-16T04:32:50.246Z,100.00
2022-11-16T04:35:17.630Z,100.00
2022-11-16T04:37:45.476Z,100.00
2022-11-16T04:40:13.064Z,100.00
2022-11-16T04:42:40.131Z,100.00
2022-11-16T04:45:07.842Z,100.00
2022-11-16T04:47:42.169Z,100.00
2022-11-16T04:50:09.379Z,100.00
2022-11-16T04:52:36.373Z,100.00
2022-11-16T04:55:05.609Z,100.00
2022-11-16T04:57:32.816Z,100.00
2022-11-16T04:59:59.926Z,100.00
2022-11-16T05:02:27.707Z,100.00
2022-11-16T05:04:57.858Z,100.00
2022-11-16T05:07:26.227Z,100.00
2022-11-16T05:10:00.803Z,100.00
2022-11-16T05:12:28.554Z,100.00
2022-11-16T05:14:59.331Z,100.00
2022-11-16T05:17:29.498Z,100.00
2022-11-16T05:19:59.139Z,100.00
2022-11-16T05:22:27.698Z,100.00
2022-11-16T05:24:56.909Z,100.00
2022-11-16T05:27:25.429Z,100.00
2022-11-16T05:29:53.095Z,100.00
2022-11-16T05:32:24.483Z,100.00
2022-11-16T05:34:54.032Z,100.00
2022-11-16T05:37:22.617Z,100.00
2022-11-16T05:39:50.275Z,100.00
2022-11-16T05:42:19.084Z,100.00
2022-11-16T05:44:46.247Z,100.00
2022-11-16T05:47:13.367Z,100.00
2022-11-16T05:49:40.499Z,100.00
2022-11-16T05:52:08.063Z,100.00
2022-11-16T05:54:35.325Z,100.00
2022-11-16T05:57:02.495Z,100.00
2022-11-16T05:59:29.533Z,100.00
2022-11-16T06:01:59.044Z,100.00
2022-11-16T06:04:26.537Z,100.00
2022-11-16T06:06:54.595Z,100.00
2022-11-16T06:09:23.396Z,100.00
2022-11-16T06:11:50.615Z,100.00
2022-11-16T06:14:17.637Z,100.00
2022-11-16T06:16:44.769Z,100.00
2022-11-16T06:19:11.770Z,100.00
2022-11-16T06:21:38.851Z,100.00
2022-11-16T06:24:11.842Z,100.00
2022-11-16T06:26:39.561Z,100.00
2022-11-16T06:29:06.755Z,100.00
2022-11-16T06:31:35.187Z,100.00
2022-11-16T06:34:03.578Z,100.00
2022-11-16T06:36:30.662Z,100.00
2022-11-16T06:39:00.103Z,100.00
2022-11-16T06:41:28.939Z,100.00
2022-11-16T06:43:56.456Z,100.00
2022-11-16T06:46:29.764Z,100.00
2022-11-16T06:48:58.528Z,100.00
2022-11-16T06:51:25.541Z,100.00
2022-11-16T06:53:53.058Z,100.00
2022-11-16T06:56:21.209Z,100.00
2022-11-16T06:58:56.113Z,100.00
2022-11-16T07:01:24.888Z,100.00
2022-11-16T07:03:56.928Z,100.00
2022-11-16T07:06:23.883Z,100.00
2022-11-16T07:08:50.903Z,100.00
2022-11-16T07:11:23.106Z,100.00
2022-11-16T07:13:50.059Z,100.00
2022-11-16T07:16:17.694Z,100.00
2022-11-16T07:18:51.614Z,100.00
2022-11-16T07:21:19.235Z,100.00
2022-11-16T07:23:46.665Z,100.00
2022-11-16T07:26:18.673Z,100.00
2022-11-16T07:28:51.490Z,100.00
2022-11-16T07:31:21.540Z,100.00
2022-11-16T07:34:45.135Z,100.00
2022-11-16T07:38:09.749Z,100.00
2022-11-16T07:41:45.596Z,100.00
2022-11-16T07:45:08.944Z,100.00
2022-11-16T07:48:22.490Z,100.00
2022-11-16T07:51:15.558Z,100.00
2022-11-16T07:53:53.168Z,100.00
2022-11-16T07:56:20.174Z,100.00
2022-11-16T07:58:48.506Z,100.00
2022-11-16T08:01:17.817Z,100.00
2022-11-16T08:03:46.922Z,100.00
2022-11-16T08:06:18.138Z,100.00
2022-11-16T08:08:45.135Z,100.00
2022-11-16T08:11:13.502Z,100.00
2022-11-16T08:13:42.282Z,100.00
2022-11-16T08:16:15.719Z,100.00
2022-11-16T08:18:45.271Z,100.00
2022-11-16T08:21:15.405Z,100.00
2022-11-16T08:23:44.209Z,100.00
2022-11-16T08:26:18.507Z,100.00
2022-11-16T08:28:51.147Z,100.00
2022-11-16T08:31:25.536Z,100.00
2022-11-16T08:34:00.285Z,100.00
2022-11-16T08:36:28.074Z,100.00
2022-11-16T08:38:55.154Z,100.00
2022-11-16T08:41:24.322Z,100.00
2022-11-16T08:43:51.382Z,100.00
2022-11-16T08:46:20.917Z,100.00
2022-11-16T08:48:57.578Z,100.00
2022-11-16T08:51:25.262Z,100.00
2022-11-16T08:53:59.859Z,100.00
2022-11-16T08:56:28.019Z,100.00
2022-11-16T08:58:58.621Z,100.00
2022-11-16T09:01:28.809Z,100.00
2022-11-16T09:03:56.229Z,100.00
2022-11-16T09:06:24.842Z,100.00
2022-11-16T09:08:52.239Z,100.00
2022-11-16T09:11:22.261Z,100.00
2022-11-16T09:13:51.864Z,100.00
2022-11-16T09:16:20.098Z,100.00
2022-11-16T09:18:49.967Z,100.00
2022-11-16T09:21:22.139Z,100.00
2022-11-16T09:23:49.950Z,100.00
2022-11-16T09:26:18.315Z,98.46
2022-11-16T09:28:45.322Z,98.04
2022-11-16T09:31:12.341Z,98.17
2022-11-16T09:33:39.344Z,96.94
2022-11-16T09:36:09.053Z,96.34
2022-11-16T09:39:13.965Z,96.77
2022-11-16T09:42:06.736Z,95.96
2022-11-16T09:44:58.214Z,93.99
2022-11-16T09:47:38.105Z,93.50
2022-11-16T09:50:07.118Z,95.50
2022-11-16T09:52:43.030Z,93.95
2022-11-16T09:55:28.523Z,95.70
2022-11-16T09:57:59.160Z,94.82
2022-11-16T10:00:28.010Z,94.45
2022-11-16T10:03:04.255Z,94.17
2022-11-16T10:05:40.017Z,94.05
2022-11-16T10:08:22.162Z,93.14
2022-11-16T10:11:13.477Z,93.09
2022-11-16T10:14:11.410Z,91.64
2022-11-16T10:16:50.555Z,92.27
2022-11-16T10:19:30.781Z,91.41
2022-11-16T10:22:53.096Z,90.97
2022-11-16T10:25:26.223Z,90.96
2022-11-16T10:28:11.219Z,89.63
2022-11-16T10:30:58.232Z,90.77
2022-11-16T10:33:26.676Z,91.17
2022-11-16T10:35:53.746Z,89.47
2022-11-16T10:38:27.392Z,89.14
2022-11-16T10:41:05.580Z,89.19
2022-11-16T10:43:33.927Z,89.49
2022-11-16T10:46:22.253Z,89.81
2022-11-16T10:48:54.364Z,88.85
2022-11-16T10:51:21.417Z,88.38
2022-11-16T10:53:48.388Z,88.50
2022-11-16T10:56:17.066Z,86.85
2022-11-16T10:59:01.872Z,86.03
2022-11-16T11:01:37.891Z,85.54
2022-11-16T11:04:22.953Z,87.49
2022-11-16T11:06:58.637Z,84.91
2022-11-16T11:09:27.715Z,85.33
2022-11-16T11:12:12.899Z,83.71
2022-11-16T11:14:39.877Z,85.32
2022-11-16T11:17:17.432Z,83.68
2022-11-16T11:19:44.441Z,82.90
2022-11-16T11:22:14.458Z,83.22
2022-11-16T11:24:47.678Z,82.27
2022-11-16T11:27:22.337Z,82.82
2022-11-16T11:29:55.208Z,80.65
2022-11-16T11:32:31.866Z,81.15
2022-11-16T11:34:59.212Z,79.89
2022-11-16T11:37:33.287Z,80.35
2022-11-16T11:40:09.316Z,77.60
2022-11-16T11:42:41.001Z,78.52
2022-11-16T11:45:13.470Z,78.14
2022-11-16T11:48:02.458Z,77.99
2022-11-16T11:50:52.618Z,77.78
2022-11-16T11:53:45.698Z,78.08
2022-11-16T11:56:14.487Z,77.70
2022-11-16T11:58:43.026Z,79.49
2022-11-16T12:01:47.894Z,77.80
2022-11-16T12:04:42.638Z,78.48
2022-11-16T12:07:27.306Z,78.87
2022-11-16T12:10:26.250Z,78.94
2022-11-16T12:13:08.006Z,78.39
2022-11-16T12:16:05.908Z,79.15
2022-11-16T12:18:50.893Z,77.00
2022-11-16T12:21:30.957Z,76.41
2022-11-16T12:24:23.722Z,75.91
2022-11-16T12:27:18.125Z,74.95
2022-11-16T12:30:03.801Z,75.54
2022-11-16T12:32:39.736Z,76.42
2022-11-16T12:35:21.825Z,75.60
2022-11-16T12:38:02.041Z,76.18
2022-11-16T12:40:34.109Z,75.79
2022-11-16T12:43:21.015Z,75.46
2022-11-16T12:46:15.073Z,78.23
2022-11-16T12:48:55.639Z,75.52
2022-11-16T12:51:45.232Z,76.32
2022-11-16T12:54:30.726Z,76.57
2022-11-16T12:57:16.022Z,77.91
2022-11-16T12:59:48.983Z,75.21
2022-11-16T13:02:31.242Z,76.85
2022-11-16T13:05:07.215Z,76.69
2022-11-16T13:07:45.346Z,76.94
2022-11-16T13:10:18.208Z,74.40
2022-11-16T13:12:55.825Z,74.40
2022-11-16T13:15:35.764Z,73.84
2022-11-16T13:18:04.876Z,75.89
2022-11-16T13:20:39.650Z,73.46
2022-11-16T13:23:19.269Z,76.92
2022-11-16T13:25:53.770Z,80.00
2022-11-16T13:28:36.994Z,76.21
2022-11-16T13:31:25.606Z,76.83
2022-11-16T13:34:02.948Z,75.91
2022-11-16T13:36:36.015Z,77.18
2022-11-16T13:39:05.400Z,79.50
2022-11-16T13:41:41.841Z,78.85
2022-11-16T13:44:25.587Z,80.94
2022-11-16T13:46:57.587Z,79.82
2022-11-16T13:49:41.249Z,80.98
2022-11-16T13:52:41.005Z,81.88
2022-11-16T13:55:16.215Z,79.88
2022-11-16T13:57:51.964Z,78.96
2022-11-16T14:00:53.647Z,83.09
2022-11-16T14:03:20.626Z,83.31
2022-11-16T14:05:52.557Z,82.00
2022-11-16T14:08:19.733Z,84.03
2022-11-16T14:10:49.721Z,85.87
2022-11-16T14:13:35.491Z,86.90
2022-11-16T14:16:14.629Z,86.81
2022-11-16T14:18:42.899Z,90.13
2022-11-16T14:21:43.804Z,90.90
2022-11-16T14:24:16.965Z,89.43
2022-11-16T14:27:16.788Z,90.45
2022-11-16T14:29:47.014Z,90.13
2022-11-16T14:32:21.610Z,91.12
2022-11-16T14:34:51.738Z,92.49
2022-11-16T14:37:21.749Z,93.13
2022-11-16T14:40:07.881Z,94.86
2022-11-16T14:43:01.879Z,95.33
2022-11-16T14:45:35.748Z,96.49
2022-11-16T14:48:06.417Z,95.82
2022-11-16T14:50:38.131Z,96.58
2022-11-16T14:53:09.375Z,96.40
2022-11-16T14:55:42.705Z,96.54
2022-11-16T14:58:22.305Z,95.41
2022-11-16T15:00:58.869Z,94.01
2022-11-16T15:03:40.221Z,94.74
2022-11-16T15:06:08.160Z,96.51
2022-11-16T15:08:43.113Z,97.44
2022-11-16T15:11:20.688Z,97.61
2022-11-16T15:13:49.165Z,97.57
2022-11-16T15:16:19.712Z,97.77
2022-11-16T15:18:58.024Z,98.10
2022-11-16T15:21:25.719Z,98.39
2022-11-16T15:24:23.337Z,97.75
2022-11-16T15:26:40.045Z,97.48
2022-11-16T15:29:15.200Z,97.88
2022-11-16T15:31:42.356Z,97.44
2022-11-16T15:34:13.060Z,97.38
2022-11-16T15:36:41.023Z,98.42
2022-11-16T15:39:19.624Z,98.77
2022-11-16T15:41:47.143Z,99.20
2022-11-16T15:44:17.591Z,99.71
2022-11-16T15:46:49.080Z,100.00
2022-11-16T15:49:36.128Z,100.00
2022-11-16T15:52:03.428Z,100.00
2022-11-16T15:54:32.998Z,100.00
2022-11-16T15:57:11.840Z,100.00
2022-11-16T15:59:38.935Z,100.00
2022-11-16T16:02:18.120Z,100.00
2022-11-16T16:04:45.178Z,100.00
2022-11-16T16:07:32.245Z,100.00
2022-11-16T16:10:18.752Z,100.00
2022-11-16T16:12:54.810Z,100.00
2022-11-16T16:15:29.388Z,100.00
2022-11-16T16:17:58.556Z,100.00
2022-11-16T16:20:29.180Z,100.00
2022-11-16T16:23:12.708Z,100.00
2022-11-16T16:25:39.696Z,100.00
2022-11-16T16:28:06.850Z,100.00
2022-11-16T16:30:34.068Z,100.00
2022-11-16T16:33:02.118Z,100.00
2022-11-16T16:35:29.485Z,100.00
2022-11-16T16:38:01.344Z,100.00
2022-11-16T16:40:29.690Z,100.00
2022-11-16T16:42:57.137Z,100.00
2022-11-16T16:45:34.860Z,100.00
2022-11-16T16:48:01.860Z,100.00
2022-11-16T16:50:28.915Z,100.00
2022-11-16T16:52:55.903Z,100.00
2022-11-16T16:55:23.274Z,100.00
2022-11-16T16:57:50.319Z,100.00
2022-11-16T17:00:17.755Z,100.00
2022-11-16T17:02:44.785Z,100.00
2022-11-16T17:05:11.749Z,100.00
2022-11-16T17:07:38.760Z,100.00
2022-11-16T17:10:06.562Z,100.00
2022-11-16T17:12:33.562Z,100.00
2022-11-16T17:15:00.650Z,100.00
2022-11-16T17:17:27.633Z,100.00
2022-11-16T17:19:54.610Z,100.00
2022-11-16T17:22:21.649Z,100.00
2022-11-16T17:24:48.715Z,100.00
2022-11-16T17:27:15.669Z,100.00
2022-11-16T17:29:42.738Z,100.00
2022-11-16T17:32:09.786Z,100.00
2022-11-16T17:34:36.833Z,100.00
2022-11-16T17:37:03.902Z,100.00
2022-11-16T17:39:30.856Z,100.00
2022-11-16T17:41:57.857Z,100.00
2022-11-16T17:44:24.879Z,100.00
2022-11-16T17:46:52.009Z,100.00
2022-11-16T17:49:18.978Z,100.00
2022-11-16T17:51:45.963Z,100.00
2022-11-16T17:54:12.952Z,100.00
2022-11-16T17:56:40.187Z,100.00
2022-11-16T17:59:07.147Z,100.00
2022-11-16T18:01:34.188Z,100.00
2022-11-16T18:04:01.257Z,100.00
2022-11-16T18:06:28.731Z,100.00
2022-11-16T18:08:56.823Z,100.00
2022-11-16T18:11:26.284Z,100.00
2022-11-16T18:13:55.681Z,100.00
2022-11-16T18:16:25.395Z,100.00
2022-11-16T18:19:01.060Z,100.00
2022-11-16T18:21:28.388Z,100.00
2022-11-16T18:23:55.757Z,100.00
2022-11-16T18:26:23.895Z,100.00
2022-11-16T18:28:52.291Z,100.00
2022-11-16T18:31:22.385Z,100.00
2022-11-16T18:33:49.923Z,100.00
2022-11-16T18:36:18.857Z,100.00
2022-11-16T18:38:46.514Z,100.00
2022-11-16T18:41:13.450Z,100.00
2022-11-16T18:43:42.101Z,100.00
2022-11-16T18:46:09.091Z,100.00
2022-11-16T18:48:36.075Z,100.00
2022-11-16T18:51:04.562Z,100.00
2022-11-16T18:53:33.693Z,100.00
2022-11-16T18:56:01.147Z,100.00
2022-11-16T18:58:50.317Z,100.00
2022-11-16T19:01:17.744Z,100.00
2022-11-16T19:03:44.799Z,100.00
2022-11-16T19:06:11.964Z,100.00
2022-11-16T19:08:40.695Z,100.00
2022-11-16T19:11:10.229Z,100.00
2022-11-16T19:13:38.227Z,100.00
2022-11-16T19:16:06.313Z,100.00
2022-11-16T19:18:33.310Z,100.00
2022-11-16T19:21:12.375Z,100.00
2022-11-16T19:23:41.730Z,100.00
2022-11-16T19:26:10.089Z,100.00
2022-11-16T19:28:42.107Z,100.00
2022-11-16T19:31:23.696Z,100.00
2022-11-16T19:33:55.312Z,100.00
2022-11-16T19:36:23.219Z,100.00
2022-11-16T19:38:50.407Z,100.00
2022-11-16T19:41:18.803Z,100.00
2022-11-16T19:43:45.766Z,100.00
2022-11-16T19:46:14.771Z,100.00
2022-11-16T19:48:42.584Z,100.00
2022-11-16T19:51:12.554Z,100.00
2022-11-16T19:53:40.421Z,100.00
2022-11-16T19:56:11.309Z,100.00
2022-11-16T19:58:38.644Z,100.00
2022-11-16T20:01:09.612Z,100.00
2022-11-16T20:03:37.110Z,100.00
2022-11-16T20:06:17.435Z,100.00
2022-11-16T20:08:53.021Z,100.00
2022-11-16T20:11:23.214Z,100.00
2022-11-16T20:13:52.244Z,100.00
2022-11-16T20:16:21.403Z,100.00
2022-11-16T20:18:49.007Z,100.00
2022-11-16T20:21:27.384Z,100.00
2022-11-16T20:23:55.594Z,100.00
2022-11-16T20:26:24.442Z,100.00
2022-11-16T20:28:52.443Z,100.00
2022-11-16T20:31:22.131Z,100.00
2022-11-16T20:33:54.127Z,100.00
2022-11-16T20:36:22.175Z,100.00
2022-11-16T20:38:49.332Z,100.00
2022-11-16T20:41:19.264Z,100.00
2022-11-16T20:43:47.544Z,100.00
2022-11-16T20:46:16.634Z,100.00
2022-11-16T20:48:45.018Z,100.00
2022-11-16T20:51:14.439Z,100.00
2022-11-16T20:53:41.406Z,100.00
2022-11-16T20:56:10.049Z,100.00
2022-11-16T20:58:37.809Z,100.00
2022-11-16T21:01:06.632Z,100.00
2022-11-16T21:03:34.881Z,100.00
2022-11-16T21:06:02.244Z,100.00
2022-11-16T21:08:29.420Z,100.00
2022-11-16T21:10:56.586Z,100.00
2022-11-16T21:13:23.717Z,100.00
2022-11-16T21:15:55.541Z,100.00
2022-11-16T21:18:26.503Z,100.00
2022-11-16T21:21:13.456Z,100.00
2022-11-16T21:23:42.741Z,100.00
2022-11-16T21:26:12.310Z,100.00
2022-11-16T21:28:39.689Z,100.00
2022-11-16T21:31:10.033Z,100.00
2022-11-16T21:33:37.500Z,100.00
2022-11-16T21:36:06.398Z,100.00
2022-11-16T21:38:34.456Z,100.00
2022-11-16T21:41:02.728Z,100.00
2022-11-16T21:43:29.727Z,100.00
2022-11-16T21:46:05.205Z,100.00
2022-11-16T21:48:33.531Z,100.00
2022-11-16T21:51:08.567Z,100.00
2022-11-16T21:53:36.875Z,100.00
2022-11-16T21:56:05.063Z,100.00
2022-11-16T21:58:32.055Z,100.00
2022-11-16T22:01:01.362Z,100.00
2022-11-16T22:03:31.433Z,100.00
2022-11-16T22:06:01.561Z,100.00
2022-11-16T22:08:28.541Z,100.00
2022-11-16T22:10:55.558Z,100.00
2022-11-16T22:13:22.631Z,100.00
2022-11-16T22:15:49.589Z,100.00
2022-11-16T22:18:16.566Z,100.00
2022-11-16T22:20:46.759Z,100.00
2022-11-16T22:23:18.623Z,100.00
2022-11-16T22:25:49.725Z,100.00
2022-11-16T22:28:21.148Z,100.00
2022-11-16T22:30:51.655Z,100.00
2022-11-16T22:33:19.087Z,100.00
2022-11-16T22:35:46.781Z,100.00
2022-11-16T22:38:13.755Z,100.00
2022-11-16T22:40:40.755Z,100.00
2022-11-16T22:43:07.758Z,100.00
2022-11-16T22:45:34.765Z,100.00
2022-11-16T22:48:01.718Z,100.00
2022-11-16T22:50:28.701Z,100.00
2022-11-16T22:52:58.368Z,100.00
2022-11-16T22:55:25.342Z,100.00
2022-11-16T22:57:52.297Z,100.00
2022-11-16T23:00:19.598Z,100.00
2022-11-16T23:02:46.639Z,100.00
2022-11-16T23:05:13.691Z,100.00
2022-11-16T23:07:40.719Z,100.00
2022-11-16T23:10:08.198Z,100.00
2022-11-16T23:12:37.237Z,100.00
2022-11-16T23:15:04.661Z,100.00
2022-11-16T23:17:31.635Z,100.00
2022-11-16T23:19:59.567Z,100.00
2022-11-16T23:22:26.556Z,100.00
2022-11-16T23:24:53.582Z,100.00
2022-11-16T23:27:20.608Z,100.00
2022-11-16T23:29:47.802Z,100.00
2022-11-16T23:32:14.987Z,100.00
2022-11-16T23:34:41.986Z,100.00
2022-11-16T23:37:08.956Z,100.00
2022-11-16T23:39:35.944Z,100.00
2022-11-16T23:42:03.116Z,100.00
2022-11-16T23:44:30.100Z,100.00
2022-11-16T23:46:57.147Z,100.00
2022-11-16T23:49:24.316Z,100.00
2022-11-16T23:51:51.291Z,100.00
2022-11-16T23:54:18.263Z,100.00
2022-11-16T23:56:45.231Z,100.00
2022-11-16T23:59:12.249Z,100.00
